WetterOnline ( https://www.wetteronline.de )

Wetter aktuell Plön

Aktuelles Wetter: Dörnick (28m)

6-stündlich | Neueste Meldungen
Ortszeit Temperatur Wetter
Mi, 18.09. 14:00 11.6° C Sprühregen
Mi, 18.09. 8:00 9.6° C bewölkt
Mi, 18.09. 2:00 7.5° C wolkenlos
Di, 17.09. 20:00 10.8° C bewölkt
Di, 17.09. 14:00 12.0° C Regen
Di, 17.09. 8:00 10.5° C bedeckt
Di, 17.09. 2:00 9.9° C wolkig
Mo, 16.09. 20:00 12.5° C wolkig
Ortszeit Temperatur Wetter
Mi, 18.09. 16:00 13.3° C leicht bewölkt
Mi, 18.09. 15:30 12.9° C bewölkt
Mi, 18.09. 15:20 12.9° C bewölkt
Mi, 18.09. 15:10 13.4° C leichter Regen
Mi, 18.09. 15:00 13.0° C wolkig
Mi, 18.09. 14:50 13.0° C wolkig
Mi, 18.09. 14:30 13.3° C leichter Regen
Mi, 18.09. 14:00 11.6° C Sprühregen
Mi, 18.09. 13:30 14.5° C leicht bewölkt
Mi, 18.09. 13:00 13.8° C leicht bewölkt
Ortszeit Relative Feuchte Sichtweite
Mi, 18.09. 14:00 73% 18 km
Mi, 18.09. 8:00 81% 27 km
Mi, 18.09. 2:00 87% 29 km
Di, 17.09. 20:00 67% 40 km
Di, 17.09. 14:00 66% 14 km
Di, 17.09. 8:00 92% 45 km
Di, 17.09. 2:00 86% 30 km
Mo, 16.09. 20:00 77% 30 km
Ortszeit Relative Feuchte Sichtweite
Mi, 18.09. 16:00 57% 22 km
Mi, 18.09. 15:30 62% 35 km
Mi, 18.09. 15:20 62% -
Mi, 18.09. 15:10 61% -
Mi, 18.09. 15:00 61% 22 km
Mi, 18.09. 14:50 61% -
Mi, 18.09. 14:30 64% 30 km
Mi, 18.09. 14:00 73% 18 km
Mi, 18.09. 13:30 53% 16 km
Mi, 18.09. 13:00 49% 27 km
Ortszeit Niederschlagsmenge Niederschlagsart
Mi, 18.09. 14:00 0.1 l/m2 in 6 Std. Regen
Mi, 18.09. 8:00 0.1 l/m2 in 12 Std. Regen
Mi, 18.09. 2:00 0.0 l/m2 in 6 Std. -
Di, 17.09. 20:00 1 l/m2 in 12 Std. Regen
Di, 17.09. 14:00 0.8 l/m2 in 6 Std. Regen
Di, 17.09. 8:00 1 l/m2 in 12 Std. Regen
Di, 17.09. 2:00 0.0 l/m2 in 6 Std. -
Mo, 16.09. 20:00 0.1 l/m2 in 12 Std. Regen
Ortszeit Niederschlagsmenge Niederschlagsart
Mi, 18.09. 16:00 0.1 l/m2 in 1 Std. Regen
Mi, 18.09. 15:30 0.1 l/m2 in 1 Std. Schneeregen
Mi, 18.09. 15:20 keine Meldung -
Mi, 18.09. 15:10 keine Meldung -
Mi, 18.09. 15:00 0.1 l/m2 in 1 Std. Regen
Mi, 18.09. 14:50 keine Meldung -
Mi, 18.09. 14:30 0.1 l/m2 in 1 Std. -
Mi, 18.09. 14:00 0.1 l/m2 in 1 Std. Regen
Mi, 18.09. 13:30 0.0 l/m2 in 1 Std. -
Mi, 18.09. 13:00 0.0 l/m2 in 1 Std. -
Ortszeit Stärke Spitze Richtung
km/h Bft. km/h Grad Sektor
Mi, 18.09. 14:00 30 5 48 290° W
Mi, 18.09. 8:00 14 3 29 280° W
Mi, 18.09. 2:00 13 3 41 280° W
Di, 17.09. 20:00 24 4 65 300° NW
Di, 17.09. 14:00 30 5 56 290° W
Di, 17.09. 8:00 9 2 26 250° W
Di, 17.09. 2:00 7 2 18 240° SW
Mo, 16.09. 20:00 11 2 36 260° W
Ortszeit Stärke Spitze Richtung
km/h Bft. km/h Grad Sektor
Mi, 18.09. 16:00 28 4 44 280° W
Mi, 18.09. 15:30 24 4 43 310° NW
Mi, 18.09. 15:20 24 4 - 310° NW
Mi, 18.09. 15:10 26 4 - 300° NW
Mi, 18.09. 15:00 25 4 43 290° W
Mi, 18.09. 14:50 25 4 - 290° W
Mi, 18.09. 14:30 22 4 43 300° NW
Mi, 18.09. 14:00 30 5 48 290° W
Mi, 18.09. 13:30 26 4 43 280° W
Mi, 18.09. 13:00 26 4 46 300° NW
Ortszeit Untergrenze Bedeckung Gattung
total tief tief mittel hoch
Mi, 18.09. 14:00 1170 m 8/8 8/8 - - -
Mi, 18.09. 8:00 1080 m 7/8 7/8 - - -
Mi, 18.09. 2:00 - 0/8 0/8 - - -
Di, 17.09. 20:00 1800 m 8/8 7/8 - - -
Di, 17.09. 14:00 1140 m 7/8 6/8 - - -
Di, 17.09. 8:00 1290 m 8/8 8/8 - - -
Di, 17.09. 2:00 1500 m 8/8 1/8 - - -
Mo, 16.09. 20:00 1110 m 6/8 6/8 - - -
Ortszeit Bedeckungsgrad in Achtel und Wolkenuntergrenze
Mi, 18.09. 16:00 1(1110m) 3(10500m)
Mi, 18.09. 15:30 3(1470m) 7(1800m)
Mi, 18.09. 15:20 3(1470m) 7(1800m)
Mi, 18.09. 15:10 5(1470m) 7(1800m)
Mi, 18.09. 15:00 2(1410m) 5(1800m)
Mi, 18.09. 14:50 2(1410m) 5(1800m)
Mi, 18.09. 14:30 1(1290m) 6(1500m) 7(2100m)
Mi, 18.09. 14:00 5(1170m) 7(1500m) 8(2100m)
Mi, 18.09. 13:30 1(1500m) 5(1500m)
Mi, 18.09. 13:00 4(1500m)
Ortszeit Luftdruck NN (hPa) Tendenz (hPa in 3 Std.)
Mi, 18.09. 14:00 1023 + 0,6
Mi, 18.09. 8:00 1021 + 1,3
Mi, 18.09. 2:00 1019 + 1,5
Di, 17.09. 20:00 1014 + 1,4
Di, 17.09. 14:00 1012 - 0,5
Di, 17.09. 8:00 1013 - 1,4
Di, 17.09. 2:00 1016 - 0,8
Mo, 16.09. 20:00 1017 0,0
Ortszeit Luftdruck NN (hPa) Tendenz (hPa in 3 Std.)
Mi, 18.09. 16:00 1023 + 0,5
Mi, 18.09. 15:30 1023 + 0,4
Mi, 18.09. 15:20 1023 keine Meldung
Mi, 18.09. 15:10 1023 keine Meldung
Mi, 18.09. 15:00 1023 + 0,4
Mi, 18.09. 14:50 1023 keine Meldung
Mi, 18.09. 14:30 1023 + 0,4
Mi, 18.09. 14:00 1023 + 0,6
Mi, 18.09. 13:30 1022 + 0,1
Mi, 18.09. 13:00 1022 + 0,3
Ortszeit Schneehöhe (cm)
Mi, 18.09. 14:00 -
Mi, 18.09. 8:00 -
Mi, 18.09. 2:00 -
Di, 17.09. 20:00 -
Di, 17.09. 14:00 -
Di, 17.09. 8:00 -
Di, 17.09. 2:00 -
Mo, 16.09. 20:00 -
Ortszeit Schneehöhe (cm)
Mi, 18.09. 16:00 -
Mi, 18.09. 15:30 -
Mi, 18.09. 15:20 -
Mi, 18.09. 15:10 -
Mi, 18.09. 15:00 -
Mi, 18.09. 14:50 -
Mi, 18.09. 14:30 -
Mi, 18.09. 14:00 -
Mi, 18.09. 13:30 -
Mi, 18.09. 13:00 -
Link zu dieser Seite / Seite empfehlen

Das Wetter in ...